Terminal Aerodrome Forecast
Issued by NWS Mt. Holly, NJ

Home | Current Version | Previous Version | Text Only | Print | Product List | Glossary On
Versions: 1 2 3 4 5 6 7 8 9 10 11 12 13 14 15 16 17 18 19 20 21 22 23 24 25 26 27 28 29
818
FTUS41 KPHI 111720
TAFPHL
TAF
KPHL 111720Z 1118/1224 27008KT P6SM SCT050
     FM112200 20004KT P6SM SCT250
     FM120600 14005KT P6SM BKN200
     FM121200 16010KT P6SM OVC080
     FM121700 22012G20KT P6SM SCT050
     FM122100 27015G25KT P6SM BKN070
     FM122300 28020G30KT P6SM FEW070=

USA.gov is the U.S. government's official web portal to all federal, state and local government web resources and services.